createdAt,value
2018-12-22T00:00:57.670Z,7.89
2018-12-22T00:02:03.212Z,7.97
2018-12-22T00:03:08.736Z,7.87
2018-12-22T00:04:14.276Z,7.90
2018-12-22T00:05:19.802Z,7.98
2018-12-22T00:06:25.342Z,7.95
2018-12-22T00:07:30.872Z,8.01
2018-12-22T00:08:36.408Z,7.98
2018-12-22T00:09:41.938Z,8.01
2018-12-22T00:10:47.474Z,7.92
2018-12-22T00:11:53.011Z,7.97
2018-12-22T00:12:58.542Z,7.95
2018-12-22T00:14:04.074Z,8.04
2018-12-22T00:15:09.612Z,7.95
2018-12-22T00:16:15.139Z,7.93
2018-12-22T00:17:20.672Z,7.98
2018-12-22T00:18:26.205Z,7.90
2018-12-22T00:19:31.742Z,7.97
2018-12-22T00:20:37.278Z,7.87
2018-12-22T00:21:42.811Z,7.95
2018-12-22T00:22:48.347Z,8.01
2018-12-22T00:23:53.870Z,7.95
2018-12-22T00:25:00.346Z,7.97
2018-12-22T00:26:04.947Z,7.95
2018-12-22T00:27:10.478Z,7.85
2018-12-22T00:28:22.098Z,7.98
2018-12-22T00:29:21.544Z,7.90
2018-12-22T00:30:27.078Z,7.85
2018-12-22T00:31:32.611Z,7.79
2018-12-22T00:32:38.143Z,7.86
2018-12-22T00:33:43.677Z,7.75
2018-12-22T00:34:49.210Z,7.74
2018-12-22T00:35:54.749Z,7.74
2018-12-22T00:37:00.371Z,7.72
2018-12-22T00:38:05.818Z,7.68
2018-12-22T00:39:11.347Z,7.74
2018-12-22T00:40:16.885Z,7.64
2018-12-22T00:41:22.416Z,7.60
2018-12-22T00:42:27.947Z,7.61
2018-12-22T00:43:33.485Z,7.67
2018-12-22T00:44:39.017Z,7.61
2018-12-22T00:45:44.549Z,7.64
2018-12-22T00:46:50.087Z,7.64
2018-12-22T00:47:55.615Z,7.58
2018-12-22T00:49:01.151Z,7.55
2018-12-22T00:50:06.738Z,7.61
2018-12-22T00:51:12.213Z,7.63
2018-12-22T00:52:17.749Z,7.63
2018-12-22T00:53:23.293Z,7.60
2018-12-22T00:54:28.816Z,7.53
2018-12-22T00:55:34.351Z,7.63
2018-12-22T00:56:39.898Z,7.61
2018-12-22T00:57:45.424Z,7.64
2018-12-22T00:58:50.955Z,7.55
2018-12-22T00:59:56.484Z,7.61
2018-12-22T01:01:02.017Z,7.57
2018-12-22T01:02:07.557Z,7.60
2018-12-22T01:03:13.086Z,7.55
2018-12-22T01:04:18.628Z,7.53
2018-12-22T01:05:24.172Z,7.60
2018-12-22T01:06:29.687Z,7.60
2018-12-22T01:07:35.218Z,7.60
2018-12-22T01:08:40.755Z,7.50
2018-12-22T01:09:46.288Z,7.57
2018-12-22T01:10:51.824Z,7.63
2018-12-22T01:11:57.351Z,7.60
2018-12-22T01:13:02.885Z,7.58
2018-12-22T01:14:08.421Z,7.53
2018-12-22T01:15:13.953Z,7.57
2018-12-22T01:16:19.495Z,7.53
2018-12-22T01:17:25.019Z,7.58
2018-12-22T01:18:30.553Z,7.57
2018-12-22T01:19:36.084Z,7.58
2018-12-22T01:20:41.626Z,7.52
2018-12-22T01:21:47.158Z,7.39
2018-12-22T01:22:52.690Z,7.45
2018-12-22T01:23:58.225Z,7.50
2018-12-22T01:25:03.752Z,7.45
2018-12-22T01:26:09.288Z,7.48
2018-12-22T01:27:14.826Z,7.42
2018-12-22T01:28:20.351Z,7.40
2018-12-22T01:29:25.886Z,7.40
2018-12-22T01:30:31.418Z,7.42
2018-12-22T01:31:36.960Z,7.42
2018-12-22T01:32:42.491Z,7.42
2018-12-22T01:33:48.019Z,7.40
2018-12-22T01:34:53.557Z,7.49
2018-12-22T01:35:59.092Z,7.43
2018-12-22T01:37:04.619Z,7.39
2018-12-22T01:38:10.153Z,7.39
2018-12-22T01:39:15.698Z,7.37
2018-12-22T01:40:21.223Z,7.40
2018-12-22T01:41:26.759Z,7.37
2018-12-22T01:42:32.287Z,7.39
2018-12-22T01:43:37.824Z,7.37
2018-12-22T01:44:43.357Z,7.35
2018-12-22T01:45:48.889Z,7.42
2018-12-22T01:46:54.419Z,7.39
2018-12-22T01:47:59.956Z,7.42
2018-12-22T01:49:05.550Z,7.42
2018-12-22T01:50:11.021Z,7.39
2018-12-22T01:51:16.659Z,7.42
2018-12-22T01:52:22.085Z,7.42
2018-12-22T01:53:27.629Z,7.42
2018-12-22T01:54:33.154Z,7.45
2018-12-22T01:55:38.691Z,7.49
2018-12-22T01:56:44.218Z,7.45
2018-12-22T01:57:49.760Z,7.48
2018-12-22T01:58:55.286Z,7.40
2018-12-22T02:00:00.820Z,7.40
2018-12-22T02:01:06.352Z,7.45
2018-12-22T02:02:11.888Z,7.42
2018-12-22T02:04:49.010Z,7.52
2018-12-22T02:05:54.525Z,7.45
2018-12-22T02:07:53.818Z,7.45
2018-12-22T02:08:59.321Z,7.40
2018-12-22T02:10:57.714Z,7.42
2018-12-22T02:12:03.246Z,7.43
2018-12-22T02:14:01.676Z,7.43
2018-12-22T02:15:07.178Z,7.49
2018-12-22T02:17:05.582Z,7.49
2018-12-22T02:18:11.116Z,7.45
2018-12-22T02:19:16.643Z,7.42
2018-12-22T02:20:22.175Z,7.50
2018-12-22T02:21:27.712Z,7.46
2018-12-22T02:22:33.246Z,7.45
2018-12-22T02:23:38.773Z,7.50
2018-12-22T02:24:44.304Z,7.43
2018-12-22T02:25:49.842Z,7.46
2018-12-22T02:26:55.379Z,7.37
2018-12-22T02:28:00.908Z,7.39
2018-12-22T02:29:06.438Z,7.46
2018-12-22T02:30:11.973Z,7.30
2018-12-22T02:31:17.506Z,7.27
2018-12-22T02:32:23.043Z,7.31
2018-12-22T02:33:28.580Z,7.32
2018-12-22T02:34:34.113Z,7.28
2018-12-22T02:35:39.642Z,7.35
2018-12-22T02:36:45.178Z,7.27
2018-12-22T02:37:50.709Z,7.32
2018-12-22T02:38:56.248Z,7.28
2018-12-22T02:40:01.782Z,7.23
2018-12-22T02:41:07.316Z,7.28
2018-12-22T02:42:12.841Z,7.27
2018-12-22T02:43:18.376Z,7.27
2018-12-22T02:44:23.909Z,7.34
2018-12-22T02:45:29.441Z,7.28
2018-12-22T02:46:34.974Z,7.31
2018-12-22T02:47:40.535Z,7.30
2018-12-22T02:48:46.042Z,7.28
2018-12-22T02:49:51.572Z,7.25
2018-12-22T02:50:57.111Z,7.24
2018-12-22T02:52:02.638Z,7.27
2018-12-22T02:53:08.172Z,7.32
2018-12-22T02:54:13.706Z,7.21
2018-12-22T02:55:19.239Z,7.21
2018-12-22T02:56:24.780Z,7.27
2018-12-22T02:57:30.310Z,7.21
2018-12-22T02:58:35.840Z,7.24
2018-12-22T02:59:41.373Z,7.20
2018-12-22T03:00:46.902Z,7.24
2018-12-22T03:01:52.442Z,7.20
2018-12-22T03:02:57.977Z,7.21
2018-12-22T03:04:03.504Z,7.24
2018-12-22T03:05:09.036Z,7.24
2018-12-22T03:06:14.578Z,7.17
2018-12-22T03:07:20.106Z,7.17
2018-12-22T03:08:25.637Z,7.24
2018-12-22T03:09:31.172Z,7.25
2018-12-22T03:10:36.704Z,7.24
2018-12-22T03:11:42.237Z,7.28
2018-12-22T03:12:47.771Z,7.24
2018-12-22T03:13:53.304Z,7.17
2018-12-22T03:14:58.842Z,7.23
2018-12-22T03:16:04.371Z,7.30
2018-12-22T03:17:09.908Z,7.28
2018-12-22T03:18:15.437Z,7.25
2018-12-22T03:19:20.975Z,7.28
2018-12-22T03:20:26.505Z,7.30
2018-12-22T03:21:32.042Z,7.30
2018-12-22T03:22:37.571Z,7.23
2018-12-22T03:23:43.116Z,7.25
2018-12-22T03:24:48.642Z,7.21
2018-12-22T03:25:54.168Z,7.17
2018-12-22T03:26:59.707Z,7.21
2018-12-22T03:28:05.237Z,7.16
2018-12-22T03:29:15.469Z,7.13
2018-12-22T03:30:16.307Z,7.10
2018-12-22T03:31:21.839Z,7.09
2018-12-22T03:32:27.369Z,7.15
2018-12-22T03:33:32.905Z,7.12
2018-12-22T03:34:38.434Z,7.10
2018-12-22T03:35:43.968Z,7.15
2018-12-22T03:36:49.503Z,7.16
2018-12-22T03:37:55.035Z,7.12
2018-12-22T03:39:00.570Z,7.13
2018-12-22T03:40:06.107Z,7.15
2018-12-22T03:41:11.638Z,7.07
2018-12-22T03:42:17.178Z,7.15
2018-12-22T03:43:22.709Z,7.05
2018-12-22T03:44:28.334Z,7.03
2018-12-22T03:45:33.769Z,7.12
2018-12-22T03:46:39.310Z,7.10
2018-12-22T03:47:44.841Z,7.05
2018-12-22T03:48:50.367Z,7.05
2018-12-22T03:49:55.909Z,7.05
2018-12-22T03:51:01.434Z,7.03
2018-12-22T03:52:06.984Z,7.10
2018-12-22T03:53:12.503Z,7.03
2018-12-22T03:54:18.035Z,7.07
2018-12-22T03:55:23.570Z,7.09
2018-12-22T03:56:29.104Z,7.03
2018-12-22T03:57:34.634Z,7.07
2018-12-22T03:58:40.167Z,7.07
2018-12-22T03:59:45.709Z,7.13
2018-12-22T04:00:51.233Z,7.07
2018-12-22T04:01:56.765Z,7.07
2018-12-22T04:03:02.301Z,7.13
2018-12-22T04:04:07.838Z,7.07
2018-12-22T04:05:13.372Z,7.15
2018-12-22T04:06:18.903Z,7.15
2018-12-22T04:07:24.436Z,7.13
2018-12-22T04:08:29.972Z,7.12
2018-12-22T04:09:35.502Z,7.16
2018-12-22T04:10:41.035Z,7.09
2018-12-22T04:11:46.568Z,7.12
2018-12-22T04:12:52.110Z,7.15
2018-12-22T04:13:57.635Z,7.15
2018-12-22T04:15:03.167Z,7.17
2018-12-22T04:16:08.705Z,7.09
2018-12-22T04:17:14.350Z,7.10
2018-12-22T04:18:19.768Z,7.07
2018-12-22T04:19:25.304Z,7.10
2018-12-22T04:20:30.842Z,7.16
2018-12-22T04:21:36.369Z,7.15
2018-12-22T04:22:41.908Z,7.07
2018-12-22T04:23:47.596Z,7.12
2018-12-22T04:24:52.971Z,7.16
2018-12-22T04:25:58.518Z,7.13
2018-12-22T04:27:04.046Z,7.16
2018-12-22T04:28:09.571Z,7.16
2018-12-22T04:29:15.106Z,7.12
2018-12-22T04:30:20.635Z,7.16
2018-12-22T04:31:26.169Z,7.17
2018-12-22T04:32:31.704Z,7.09
2018-12-22T04:33:37.244Z,7.07
2018-12-22T04:34:42.771Z,7.09
2018-12-22T04:35:48.303Z,7.16
2018-12-22T04:36:53.834Z,7.09
2018-12-22T04:37:59.378Z,7.09
2018-12-22T04:39:04.910Z,7.07
2018-12-22T04:40:10.435Z,7.16
2018-12-22T04:41:15.973Z,7.05
2018-12-22T04:42:21.500Z,7.07
2018-12-22T04:43:27.043Z,7.07
2018-12-22T04:44:32.568Z,7.16
2018-12-22T04:45:38.102Z,7.12
2018-12-22T04:46:43.634Z,7.15
2018-12-22T04:47:49.168Z,7.10
2018-12-22T04:48:54.701Z,7.10
2018-12-22T04:50:00.236Z,7.10
2018-12-22T04:51:05.769Z,7.15
2018-12-22T04:52:11.302Z,7.12
2018-12-22T04:53:16.832Z,7.10
2018-12-22T04:54:22.369Z,7.12
2018-12-22T04:55:27.908Z,7.05
2018-12-22T04:56:33.435Z,7.02
2018-12-22T04:57:38.970Z,7.07
2018-12-22T04:58:44.506Z,7.05
2018-12-22T04:59:50.035Z,7.02
2018-12-22T05:00:55.575Z,6.99
2018-12-22T05:02:01.105Z,7.02
2018-12-22T05:03:06.637Z,6.99
2018-12-22T05:04:12.176Z,7.02
2018-12-22T05:05:17.699Z,7.05
2018-12-22T05:06:23.236Z,6.95
2018-12-22T05:07:28.767Z,7.02
2018-12-22T05:08:34.302Z,6.99
2018-12-22T05:09:39.840Z,6.99
2018-12-22T05:10:45.371Z,6.98
2018-12-22T05:11:50.909Z,6.98
2018-12-22T05:12:56.435Z,6.89
2018-12-22T05:14:01.969Z,6.98
2018-12-22T05:15:07.502Z,6.92
2018-12-22T05:16:13.037Z,6.98
2018-12-22T05:17:18.575Z,6.94
2018-12-22T05:18:24.101Z,6.92
2018-12-22T05:19:29.634Z,6.95
2018-12-22T05:20:35.168Z,6.89
2018-12-22T05:21:40.701Z,6.92
2018-12-22T05:22:46.237Z,6.92
2018-12-22T05:23:51.770Z,6.97
2018-12-22T05:24:57.300Z,6.85
2018-12-22T05:26:02.841Z,6.73
2018-12-22T05:27:08.372Z,6.85
2018-12-22T05:28:13.909Z,6.76
2018-12-22T05:29:19.434Z,6.84
2018-12-22T05:30:24.966Z,6.64
2018-12-22T05:31:30.505Z,6.64
2018-12-22T05:32:36.032Z,6.69
2018-12-22T05:33:41.566Z,6.66
2018-12-22T05:34:47.101Z,6.58
2018-12-22T05:35:52.633Z,6.66
2018-12-22T05:36:58.173Z,6.64
2018-12-22T05:38:03.701Z,6.56
2018-12-22T05:39:09.233Z,6.66
2018-12-22T05:40:14.767Z,6.66
2018-12-22T05:41:20.299Z,6.67
2018-12-22T05:42:25.837Z,6.69
2018-12-22T05:43:31.366Z,6.67
2018-12-22T05:44:36.898Z,6.56
2018-12-22T05:45:42.431Z,6.58
2018-12-22T05:46:47.971Z,6.51
2018-12-22T05:47:53.504Z,6.49
2018-12-22T05:48:59.034Z,6.59
2018-12-22T05:50:04.572Z,6.55
2018-12-22T05:51:10.104Z,6.49
2018-12-22T05:52:15.640Z,6.44
2018-12-22T05:53:21.163Z,6.51
2018-12-22T05:54:26.696Z,6.46
2018-12-22T05:55:32.229Z,6.51
2018-12-22T05:56:37.765Z,6.51
2018-12-22T05:57:43.296Z,6.52
2018-12-22T05:58:48.831Z,6.48
2018-12-22T06:00:00.347Z,6.44
2018-12-22T06:00:59.902Z,6.52
2018-12-22T06:02:05.429Z,6.54
2018-12-22T06:03:10.961Z,6.49
2018-12-22T06:04:16.499Z,6.44
2018-12-22T06:05:22.030Z,6.54
2018-12-22T06:06:27.566Z,6.49
2018-12-22T06:07:33.095Z,6.49
2018-12-22T06:08:38.630Z,6.48
2018-12-22T06:09:44.262Z,6.48
2018-12-22T06:10:49.692Z,6.56
2018-12-22T06:11:55.234Z,6.48
2018-12-22T06:13:00.767Z,6.48
2018-12-22T06:14:06.293Z,6.48
2018-12-22T06:15:11.826Z,6.54
2018-12-22T06:16:17.361Z,6.51
2018-12-22T06:17:22.895Z,6.52
2018-12-22T06:18:28.431Z,6.44
2018-12-22T06:19:33.962Z,6.43
2018-12-22T06:20:39.499Z,6.59
2018-12-22T06:21:45.024Z,6.49
2018-12-22T06:22:50.559Z,6.49
2018-12-22T06:23:56.095Z,6.55
2018-12-22T06:25:01.630Z,6.49
2018-12-22T06:26:07.270Z,6.46
2018-12-22T06:27:12.690Z,6.43
2018-12-22T06:28:18.224Z,6.49
2018-12-22T06:29:23.759Z,6.43
2018-12-22T06:30:29.294Z,6.49
2018-12-22T06:31:34.824Z,6.41
2018-12-22T06:32:40.355Z,6.44
2018-12-22T06:33:45.892Z,6.48
2018-12-22T06:34:51.429Z,6.41
2018-12-22T06:35:56.971Z,6.44
2018-12-22T06:37:02.491Z,6.41
2018-12-22T06:38:08.025Z,6.40
2018-12-22T06:39:13.556Z,6.38
2018-12-22T06:40:19.093Z,6.33
2018-12-22T06:41:24.620Z,6.37
2018-12-22T06:42:30.152Z,6.36
2018-12-22T06:43:35.688Z,6.37
2018-12-22T06:44:41.221Z,6.34
2018-12-22T06:45:46.754Z,6.38
2018-12-22T06:46:52.292Z,6.31
2018-12-22T06:47:57.824Z,6.36
2018-12-22T06:49:03.354Z,6.30
2018-12-22T06:50:08.884Z,6.30
2018-12-22T06:51:14.421Z,6.33
2018-12-22T06:52:19.952Z,6.28
2018-12-22T06:53:25.486Z,6.33
2018-12-22T06:54:31.023Z,6.36
2018-12-22T06:55:36.550Z,6.31
2018-12-22T06:56:42.085Z,6.38
2018-12-22T06:57:47.622Z,6.30
2018-12-22T06:58:53.152Z,6.36
2018-12-22T06:59:58.687Z,6.22
2018-12-22T07:01:04.221Z,6.28
2018-12-22T07:02:09.756Z,6.18
2018-12-22T07:03:15.289Z,6.28
2018-12-22T07:04:20.826Z,6.21
2018-12-22T07:05:26.350Z,6.15
2018-12-22T07:06:31.888Z,6.15
2018-12-22T07:07:37.419Z,6.27
2018-12-22T07:08:42.978Z,6.21
2018-12-22T07:09:48.482Z,6.18
2018-12-22T07:10:54.016Z,6.12
2018-12-22T07:11:59.549Z,6.18
2018-12-22T07:13:05.160Z,6.19
2018-12-22T07:14:10.633Z,6.25
2018-12-22T07:15:16.158Z,6.18
2018-12-22T07:16:21.684Z,6.08
2018-12-22T07:17:27.217Z,6.08
2018-12-22T07:18:32.750Z,6.12
2018-12-22T07:19:38.286Z,6.15
2018-12-22T07:20:43.822Z,6.11
2018-12-22T07:21:49.349Z,6.06
2018-12-22T07:22:54.887Z,6.08
2018-12-22T07:24:00.415Z,6.04
2018-12-22T07:25:05.959Z,6.04
2018-12-22T07:26:11.486Z,6.01
2018-12-22T07:27:17.014Z,6.04
2018-12-22T07:28:22.549Z,6.04
2018-12-22T07:29:28.079Z,6.00
2018-12-22T07:30:33.615Z,6.01
2018-12-22T07:31:39.145Z,6.01
2018-12-22T07:32:44.689Z,5.99
2018-12-22T07:33:50.212Z,6.01
2018-12-22T07:34:55.747Z,5.97
2018-12-22T07:36:01.283Z,6.03
2018-12-22T07:37:06.811Z,6.06
2018-12-22T07:38:12.345Z,6.00
2018-12-22T07:39:17.880Z,6.04
2018-12-22T07:40:23.410Z,6.00
2018-12-22T07:41:28.945Z,5.99
2018-12-22T07:42:34.484Z,5.99
2018-12-22T07:43:40.009Z,6.00
2018-12-22T07:44:45.543Z,5.97
2018-12-22T07:45:51.078Z,5.97
2018-12-22T07:48:28.209Z,5.90
2018-12-22T07:49:33.717Z,5.89
2018-12-22T07:50:39.248Z,5.85
2018-12-22T07:51:44.779Z,5.83
2018-12-22T07:52:51.717Z,5.83
2018-12-22T07:53:55.849Z,5.83
2018-12-22T07:55:01.380Z,5.85
2018-12-22T07:56:06.909Z,5.72
2018-12-22T07:57:12.444Z,5.72
2018-12-22T07:58:17.975Z,5.65
2018-12-22T07:59:23.507Z,5.72
2018-12-22T08:00:34.755Z,5.68
2018-12-22T08:01:34.579Z,5.71
2018-12-22T08:02:40.113Z,5.74
2018-12-22T08:03:45.638Z,5.67
2018-12-22T08:04:51.177Z,5.67
2018-12-22T08:05:56.712Z,5.61
2018-12-22T08:07:02.239Z,5.60
2018-12-22T08:08:07.777Z,5.51
2018-12-22T08:09:14.189Z,5.60
2018-12-22T08:10:18.884Z,5.57
2018-12-22T08:11:24.374Z,5.53
2018-12-22T08:12:29.916Z,5.49
2018-12-22T08:13:35.441Z,5.51
2018-12-22T08:14:40.973Z,5.48
2018-12-22T08:15:46.508Z,5.45
2018-12-22T08:16:52.038Z,5.33
2018-12-22T08:17:57.578Z,5.39
2018-12-22T08:19:03.113Z,5.35
2018-12-22T08:20:08.637Z,5.35
2018-12-22T08:21:14.172Z,5.28
2018-12-22T08:22:19.705Z,5.25
2018-12-22T08:23:25.242Z,5.30
2018-12-22T08:24:30.774Z,5.30
2018-12-22T08:25:36.300Z,5.30
2018-12-22T08:26:41.838Z,5.25
2018-12-22T08:27:47.372Z,5.25
2018-12-22T08:28:52.908Z,5.31
2018-12-22T08:29:58.438Z,5.28
2018-12-22T08:31:03.971Z,5.40
2018-12-22T08:32:09.505Z,5.38
2018-12-22T08:33:15.037Z,5.51
2018-12-22T08:34:20.576Z,5.39
2018-12-22T08:35:26.108Z,5.51
2018-12-22T08:36:31.639Z,5.49
2018-12-22T08:37:37.171Z,5.49
2018-12-22T08:38:42.709Z,5.61
2018-12-22T08:39:48.235Z,5.60
2018-12-22T08:40:53.770Z,5.61
2018-12-22T08:41:59.306Z,5.74
2018-12-22T08:43:04.841Z,5.75
2018-12-22T08:44:10.370Z,5.79
2018-12-22T08:45:15.900Z,5.72
2018-12-22T08:46:21.436Z,5.67
2018-12-22T08:47:26.968Z,5.82
2018-12-22T08:48:32.501Z,5.86
2018-12-22T08:49:38.040Z,5.89
2018-12-22T08:50:43.572Z,5.83
2018-12-22T08:51:49.103Z,5.85
2018-12-22T08:52:54.641Z,5.86
2018-12-22T08:54:00.170Z,5.90
2018-12-22T08:55:05.701Z,5.82
2018-12-22T08:56:11.237Z,5.93
2018-12-22T08:57:16.774Z,5.94
2018-12-22T08:58:22.305Z,5.94
2018-12-22T08:59:27.837Z,5.96
2018-12-22T09:00:33.372Z,5.97
2018-12-22T09:01:38.905Z,5.94
2018-12-22T09:02:44.432Z,5.94
2018-12-22T09:03:49.971Z,5.96
2018-12-22T09:04:55.502Z,6.03
2018-12-22T09:06:01.043Z,5.96
2018-12-22T09:07:06.566Z,5.99
2018-12-22T09:08:12.100Z,5.93
2018-12-22T09:09:17.636Z,5.96
2018-12-22T09:11:54.809Z,5.99
2018-12-22T09:13:00.278Z,5.99
2018-12-22T09:14:58.742Z,6.06
2018-12-22T09:16:04.245Z,6.00
2018-12-22T09:18:02.644Z,6.00
2018-12-22T09:19:08.197Z,6.09
2018-12-22T09:20:13.712Z,6.06
2018-12-22T09:21:19.251Z,6.09
2018-12-22T09:22:24.772Z,6.09
2018-12-22T09:23:30.306Z,6.01
2018-12-22T09:24:35.843Z,6.11
2018-12-22T09:25:41.375Z,6.04
2018-12-22T09:26:46.933Z,6.11
2018-12-22T09:27:52.440Z,6.04
2018-12-22T09:28:57.978Z,6.15
2018-12-22T09:30:03.506Z,6.14
2018-12-22T09:31:09.238Z,6.11
2018-12-22T09:32:14.568Z,6.19
2018-12-22T09:33:20.148Z,6.15
2018-12-22T09:34:25.635Z,6.19
2018-12-22T09:35:31.174Z,6.18
2018-12-22T09:36:36.703Z,6.17
2018-12-22T09:37:42.305Z,6.22
2018-12-22T09:38:47.774Z,6.17
2018-12-22T09:39:53.307Z,6.25
2018-12-22T09:40:58.839Z,6.14
2018-12-22T09:42:04.370Z,6.27
2018-12-22T09:43:09.988Z,6.19
2018-12-22T09:44:15.437Z,6.12
2018-12-22T09:45:20.971Z,6.09
2018-12-22T09:46:26.507Z,6.22
2018-12-22T09:47:32.036Z,6.30
2018-12-22T09:48:37.580Z,6.27
2018-12-22T09:49:43.098Z,6.30
2018-12-22T09:50:48.655Z,6.30
2018-12-22T09:51:54.179Z,6.25
2018-12-22T09:52:59.711Z,6.30
2018-12-22T09:54:05.243Z,6.31
2018-12-22T09:55:10.773Z,6.34
2018-12-22T09:56:16.339Z,6.28
2018-12-22T09:57:21.846Z,6.34
2018-12-22T09:59:58.965Z,6.37
2018-12-22T10:01:09.321Z,6.37
2018-12-22T10:03:02.890Z,6.37
2018-12-22T10:04:08.408Z,6.37
2018-12-22T10:06:06.848Z,6.37
2018-12-22T10:07:12.347Z,6.34
2018-12-22T10:09:10.753Z,6.38
2018-12-22T10:10:16.279Z,6.33
2018-12-22T10:11:21.812Z,6.41
2018-12-22T10:12:27.351Z,6.36
2018-12-22T10:13:32.881Z,6.40
2018-12-22T10:14:38.413Z,6.44
2018-12-22T10:15:43.945Z,6.41
2018-12-22T10:16:49.474Z,6.33
2018-12-22T10:17:55.010Z,6.38
2018-12-22T10:19:00.539Z,6.43
2018-12-22T10:20:06.080Z,6.41
2018-12-22T10:21:11.613Z,6.38
2018-12-22T10:22:17.139Z,6.38
2018-12-22T10:23:22.682Z,6.37
2018-12-22T10:24:28.212Z,6.37
2018-12-22T10:25:33.774Z,6.34
2018-12-22T10:26:39.280Z,6.36
2018-12-22T10:27:44.806Z,6.40
2018-12-22T10:28:50.341Z,6.41
2018-12-22T10:29:55.875Z,6.46
2018-12-22T10:31:01.409Z,6.44
2018-12-22T10:32:06.945Z,6.41
2018-12-22T10:33:12.480Z,6.49
2018-12-22T10:34:18.008Z,6.43
2018-12-22T10:35:23.540Z,6.43
2018-12-22T10:36:29.073Z,6.46
2018-12-22T10:37:34.608Z,6.48
2018-12-22T10:38:40.142Z,6.41
2018-12-22T10:39:45.674Z,6.49
2018-12-22T10:40:51.211Z,6.49
2018-12-22T10:41:56.749Z,6.40
2018-12-22T10:43:02.275Z,6.41
2018-12-22T10:44:07.810Z,6.44
2018-12-22T10:45:13.340Z,6.41
2018-12-22T10:46:18.974Z,6.48
2018-12-22T10:47:24.410Z,6.52
2018-12-22T10:48:29.942Z,6.44
2018-12-22T10:49:35.469Z,6.55
2018-12-22T10:50:41.009Z,6.48
2018-12-22T10:51:46.541Z,6.54
2018-12-22T10:52:52.077Z,6.59
2018-12-22T10:53:57.611Z,6.59
2018-12-22T10:55:03.151Z,6.54
2018-12-22T10:56:08.687Z,6.56
2018-12-22T10:57:14.215Z,6.55
2018-12-22T10:58:19.742Z,6.52
2018-12-22T10:59:25.274Z,6.66
2018-12-22T11:00:30.809Z,6.59
2018-12-22T11:01:36.347Z,6.62
2018-12-22T11:02:41.883Z,6.59
2018-12-22T11:03:47.439Z,6.69
2018-12-22T11:04:52.951Z,6.74
2018-12-22T11:05:58.471Z,6.74
2018-12-22T11:07:04.014Z,6.74
2018-12-22T11:08:09.548Z,6.84
2018-12-22T11:09:15.079Z,6.92
2018-12-22T11:10:20.610Z,6.88
2018-12-22T11:11:26.147Z,6.87
2018-12-22T11:12:31.677Z,7.06
2018-12-22T11:13:37.212Z,7.03
2018-12-22T11:14:42.746Z,7.09
2018-12-22T11:15:48.286Z,7.07
2018-12-22T11:16:53.823Z,7.24
2018-12-22T11:17:59.354Z,7.32
2018-12-22T11:19:04.882Z,7.34
2018-12-22T11:20:10.422Z,7.31
2018-12-22T11:21:15.951Z,7.42
2018-12-22T11:22:21.482Z,7.40
2018-12-22T11:23:27.016Z,7.42
2018-12-22T11:24:32.553Z,7.55
2018-12-22T11:25:38.091Z,7.55
2018-12-22T11:26:43.625Z,7.49
2018-12-22T11:27:49.155Z,7.55
2018-12-22T11:28:54.691Z,7.55
2018-12-22T11:30:00.275Z,7.57
2018-12-22T11:31:05.758Z,7.57
2018-12-22T11:32:11.296Z,7.52
2018-12-22T11:33:16.826Z,7.53
2018-12-22T11:34:22.362Z,7.52
2018-12-22T11:35:27.895Z,7.57
2018-12-22T11:36:33.569Z,7.53
2018-12-22T11:37:38.969Z,7.53
2018-12-22T11:38:44.503Z,7.52
2018-12-22T11:39:50.037Z,7.53
2018-12-22T11:40:55.567Z,7.60
2018-12-22T11:42:01.103Z,7.49
2018-12-22T11:43:06.636Z,7.57
2018-12-22T11:44:12.171Z,7.46
2018-12-22T11:45:17.709Z,7.50
2018-12-22T11:46:23.242Z,7.45
2018-12-22T11:47:28.772Z,7.43
2018-12-22T11:48:34.474Z,7.39
2018-12-22T11:49:39.847Z,7.42
2018-12-22T11:50:45.376Z,7.45
2018-12-22T11:51:50.914Z,7.42
2018-12-22T11:52:56.443Z,7.40
2018-12-22T11:54:01.981Z,7.49
2018-12-22T11:55:07.594Z,7.42
2018-12-22T11:56:13.053Z,7.46
2018-12-22T11:57:18.587Z,7.39
2018-12-22T11:58:24.116Z,7.39
2018-12-22T11:59:29.652Z,7.40
2018-12-22T12:00:35.186Z,7.42
2018-12-22T12:01:43.642Z,7.49
2018-12-22T12:02:46.261Z,7.45
2018-12-22T12:03:51.793Z,7.43
2018-12-22T12:04:57.319Z,7.57
2018-12-22T12:06:02.863Z,7.55
2018-12-22T12:07:08.394Z,7.60
2018-12-22T12:08:13.927Z,7.50
2018-12-22T12:09:19.462Z,7.57
2018-12-22T12:10:24.998Z,7.45
2018-12-22T12:11:30.530Z,7.61
2018-12-22T12:12:36.066Z,7.63
2018-12-22T12:13:41.605Z,7.57
2018-12-22T12:14:47.137Z,7.67
2018-12-22T12:15:52.669Z,7.58
2018-12-22T12:16:58.203Z,7.58
2018-12-22T12:18:03.744Z,7.58
2018-12-22T12:19:09.281Z,7.60
2018-12-22T12:20:14.808Z,7.72
2018-12-22T12:21:20.353Z,7.63
2018-12-22T12:22:25.875Z,7.63
2018-12-22T12:23:31.409Z,7.63
2018-12-22T12:24:36.947Z,7.49
2018-12-22T12:25:42.474Z,7.63
2018-12-22T12:26:48.017Z,7.57
2018-12-22T12:27:53.551Z,7.52
2018-12-22T12:28:59.090Z,7.60
2018-12-22T12:30:04.620Z,7.64
2018-12-22T12:31:10.152Z,7.53
2018-12-22T12:32:15.694Z,7.60
2018-12-22T12:33:21.224Z,7.48
2018-12-22T12:34:26.762Z,7.53
2018-12-22T12:35:32.289Z,7.52
2018-12-22T12:36:37.833Z,7.53
2018-12-22T12:37:43.364Z,7.53
2018-12-22T12:38:48.893Z,7.58
2018-12-22T12:39:54.431Z,7.57
2018-12-22T12:40:59.966Z,7.53
2018-12-22T12:42:05.498Z,7.52
2018-12-22T12:43:11.033Z,7.49
2018-12-22T12:44:16.569Z,7.58
2018-12-22T12:45:22.104Z,7.50
2018-12-22T12:46:27.643Z,7.57
2018-12-22T12:47:33.177Z,7.55
2018-12-22T12:48:38.710Z,7.60
2018-12-22T12:49:44.238Z,7.55
2018-12-22T12:50:49.778Z,7.52
2018-12-22T12:51:55.307Z,7.53
2018-12-22T12:53:09.410Z,7.67
2018-12-22T12:54:06.388Z,7.55
2018-12-22T12:55:11.921Z,7.57
2018-12-22T12:56:17.449Z,7.58
2018-12-22T12:57:22.982Z,7.57
2018-12-22T12:58:28.522Z,7.55
2018-12-22T12:59:34.056Z,7.53
2018-12-22T13:00:39.586Z,7.52
2018-12-22T13:01:45.119Z,7.52
2018-12-22T13:02:50.658Z,7.60
2018-12-22T13:03:56.190Z,7.52
2018-12-22T13:05:01.726Z,7.57
2018-12-22T13:06:07.264Z,7.55
2018-12-22T13:07:12.801Z,7.52
2018-12-22T13:08:18.334Z,7.55
2018-12-22T13:09:23.864Z,7.55
2018-12-22T13:10:29.397Z,7.57
2018-12-22T13:11:34.931Z,7.57
2018-12-22T13:12:40.469Z,7.52
2018-12-22T13:13:46.003Z,7.43
2018-12-22T13:14:51.540Z,7.57
2018-12-22T13:15:57.076Z,7.55
2018-12-22T13:17:02.613Z,7.52
2018-12-22T13:18:08.149Z,7.52
2018-12-22T13:19:13.673Z,7.53
2018-12-22T13:20:19.215Z,7.55
2018-12-22T13:21:24.749Z,7.57
2018-12-22T13:22:30.282Z,7.53
2018-12-22T13:23:35.816Z,7.53
2018-12-22T13:24:41.356Z,7.53
2018-12-22T13:25:47.865Z,7.53
2018-12-22T13:26:52.420Z,7.50
2018-12-22T13:27:57.952Z,7.42
2018-12-22T13:29:03.486Z,7.49
2018-12-22T13:30:09.026Z,7.57
2018-12-22T13:31:14.556Z,7.43
2018-12-22T13:32:20.090Z,7.52
2018-12-22T13:33:25.628Z,7.58
2018-12-22T13:34:31.165Z,7.55
2018-12-22T13:35:36.700Z,7.57
2018-12-22T13:36:42.231Z,7.42
2018-12-22T13:37:47.766Z,7.53
2018-12-22T13:38:53.296Z,7.55
2018-12-22T13:39:58.837Z,7.55
2018-12-22T13:41:04.366Z,7.55
2018-12-22T13:42:09.898Z,7.42
2018-12-22T13:43:15.436Z,7.52
2018-12-22T13:44:20.967Z,7.53
2018-12-22T13:45:26.504Z,7.53
2018-12-22T13:46:32.042Z,7.55
2018-12-22T13:47:37.703Z,7.39
2018-12-22T13:48:43.371Z,7.57
2018-12-22T13:49:48.722Z,7.52
2018-12-22T13:50:54.205Z,7.48
2018-12-22T13:51:59.718Z,7.42
2018-12-22T13:53:05.246Z,7.53
2018-12-22T13:54:10.782Z,7.53
2018-12-22T13:55:16.309Z,7.55
2018-12-22T13:56:21.872Z,7.57
2018-12-22T13:57:27.383Z,7.52
2018-12-22T13:58:32.918Z,7.45
2018-12-22T13:59:38.454Z,7.53
2018-12-22T14:00:43.992Z,7.45
2018-12-22T14:01:49.525Z,7.40
2018-12-22T14:02:55.054Z,7.45
2018-12-22T14:04:00.593Z,7.43
2018-12-22T14:05:06.133Z,7.52
2018-12-22T14:06:11.663Z,7.52
2018-12-22T14:07:17.193Z,7.49
2018-12-22T14:08:22.736Z,7.43
2018-12-22T14:09:28.267Z,7.45
2018-12-22T14:10:33.802Z,7.49
2018-12-22T14:11:39.337Z,7.45
2018-12-22T14:12:44.882Z,7.39
2018-12-22T14:13:50.403Z,7.39
2018-12-22T14:14:55.941Z,7.48
2018-12-22T14:16:01.485Z,7.45
2018-12-22T14:17:07.010Z,7.43
2018-12-22T14:18:12.541Z,7.42
2018-12-22T14:19:18.083Z,7.42
2018-12-22T14:20:23.610Z,7.43
2018-12-22T14:21:29.144Z,7.48
2018-12-22T14:22:34.685Z,7.48
2018-12-22T14:23:40.216Z,7.48
2018-12-22T14:24:45.751Z,7.37
2018-12-22T14:25:51.283Z,7.43
2018-12-22T14:26:56.822Z,7.37
2018-12-22T14:28:02.356Z,7.46
2018-12-22T14:29:07.887Z,7.39
2018-12-22T14:30:13.422Z,7.39
2018-12-22T14:31:18.964Z,7.49
2018-12-22T14:32:26.938Z,7.35
2018-12-22T14:33:30.026Z,7.35
2018-12-22T14:34:35.565Z,7.39
2018-12-22T14:35:41.104Z,7.28
2018-12-22T14:36:46.632Z,7.46
2018-12-22T14:37:52.162Z,7.25
2018-12-22T14:38:57.698Z,7.45
2018-12-22T14:40:03.241Z,7.32
2018-12-22T14:41:08.766Z,7.39
2018-12-22T14:42:14.303Z,7.27
2018-12-22T14:43:19.841Z,7.28
2018-12-22T14:44:25.383Z,7.30
2018-12-22T14:45:30.907Z,7.30
2018-12-22T14:46:36.445Z,7.24